createdAt,value
2019-05-14T00:00:45.649Z,1.20
2019-05-14T00:03:15.518Z,1.23
2019-05-14T00:05:45.408Z,1.30
2019-05-14T00:08:17.546Z,1.40
2019-05-14T00:10:46.378Z,1.37
2019-05-14T00:13:16.333Z,1.63
2019-05-14T00:15:46.252Z,1.27
2019-05-14T00:18:16.129Z,1.23
2019-05-14T00:20:46.048Z,1.17
2019-05-14T00:23:15.413Z,1.07
2019-05-14T00:25:44.660Z,1.37
2019-05-14T00:28:14.361Z,1.17
2019-05-14T00:30:44.185Z,1.40
2019-05-14T00:33:13.546Z,1.07
2019-05-14T00:35:42.878Z,1.30
2019-05-14T00:38:12.575Z,0.98
2019-05-14T00:40:42.400Z,1.20
2019-05-14T00:43:12.205Z,1.22
2019-05-14T00:45:41.869Z,0.93
2019-05-14T00:48:12.915Z,1.42
2019-05-14T00:50:42.850Z,1.12
2019-05-14T00:53:12.757Z,1.00
2019-05-14T00:55:42.582Z,1.35
2019-05-14T00:58:12.000Z,0.95
2019-05-14T01:00:41.802Z,1.25
2019-05-14T01:03:11.328Z,1.10
2019-05-14T01:05:41.411Z,1.40
2019-05-14T01:08:12.006Z,1.40
2019-05-14T01:10:41.866Z,1.25
2019-05-14T01:13:11.665Z,1.05
2019-05-14T01:15:41.497Z,1.20
2019-05-14T01:18:11.500Z,1.00
2019-05-14T01:20:41.390Z,1.12
2019-05-14T01:23:11.514Z,1.15
2019-05-14T01:25:42.215Z,1.22
2019-05-14T01:28:11.625Z,1.30
2019-05-14T01:30:41.176Z,1.30
2019-05-14T01:33:11.846Z,1.50
2019-05-14T01:35:42.100Z,1.07
2019-05-14T01:38:11.966Z,1.00
2019-05-14T01:40:42.089Z,1.15
2019-05-14T01:43:11.952Z,1.30
2019-05-14T01:45:41.870Z,1.25
2019-05-14T01:48:11.708Z,1.25
2019-05-14T01:50:41.469Z,1.27
2019-05-14T01:53:11.594Z,1.40
2019-05-14T01:55:41.450Z,1.30
2019-05-14T01:58:11.619Z,1.30
2019-05-14T02:00:41.648Z,1.20
2019-05-14T02:03:12.123Z,1.40
2019-05-14T02:05:41.783Z,0.95
2019-05-14T02:08:12.107Z,1.00
2019-05-14T02:10:42.025Z,1.10
2019-05-14T02:13:12.264Z,1.40
2019-05-14T02:15:42.985Z,1.25
2019-05-14T02:18:12.606Z,0.70
2019-05-14T02:20:42.366Z,1.02
2019-05-14T02:23:11.975Z,1.80
2019-05-14T02:25:41.972Z,0.98
2019-05-14T02:28:11.849Z,1.12
2019-05-14T02:30:51.974Z,1.07
2019-05-14T02:33:12.148Z,1.05
2019-05-14T02:35:41.404Z,1.30
2019-05-14T02:38:10.654Z,0.88
2019-05-14T02:40:40.682Z,0.80
2019-05-14T02:43:10.243Z,1.02
2019-05-14T02:45:58.691Z,0.93
2019-05-14T02:48:10.485Z,1.20
2019-05-14T02:50:39.814Z,0.98
2019-05-14T02:53:10.448Z,0.88
2019-05-14T02:55:39.881Z,1.20
2019-05-14T02:58:09.917Z,1.07
2019-05-14T03:00:40.930Z,0.95
2019-05-14T03:03:10.990Z,1.35
2019-05-14T03:05:41.080Z,0.85
2019-05-14T03:08:11.090Z,1.20
2019-05-14T03:10:41.058Z,1.40
2019-05-14T03:13:10.992Z,1.07
2019-05-14T03:15:40.422Z,1.12
2019-05-14T03:18:10.240Z,0.95
2019-05-14T03:20:40.263Z,1.00
2019-05-14T03:23:17.566Z,0.90
2019-05-14T03:25:40.536Z,1.25
2019-05-14T03:28:09.847Z,1.25
2019-05-14T03:30:42.420Z,1.12
2019-05-14T03:33:13.362Z,1.30
2019-05-14T03:35:49.451Z,1.02
2019-05-14T03:38:12.669Z,1.15
2019-05-14T03:40:41.913Z,1.37
2019-05-14T03:43:11.820Z,1.37
2019-05-14T03:45:41.896Z,1.20
2019-05-14T03:48:11.700Z,1.00
2019-05-14T03:50:41.086Z,1.10
2019-05-14T03:53:11.472Z,1.15
2019-05-14T03:55:41.019Z,1.17
2019-05-14T03:58:10.381Z,1.32
2019-05-14T04:00:50.460Z,0.93
2019-05-14T04:03:20.846Z,1.30
2019-05-14T04:05:50.915Z,1.40
2019-05-14T04:08:21.424Z,1.25
2019-05-14T04:10:54.221Z,1.00
2019-05-14T04:13:23.293Z,1.20
2019-05-14T04:15:54.084Z,1.27
2019-05-14T04:18:25.325Z,1.15
2019-05-14T04:20:59.350Z,1.72
2019-05-14T04:23:29.692Z,1.57
2019-05-14T04:26:01.127Z,2.20
2019-05-14T04:28:33.429Z,1.40
2019-05-14T04:31:04.209Z,1.20
2019-05-14T04:33:35.376Z,2.22
2019-05-14T04:36:05.239Z,4.28
2019-05-14T04:38:35.198Z,3.02
2019-05-14T04:41:05.045Z,1.52
2019-05-14T04:43:34.886Z,1.40
2019-05-14T04:46:04.313Z,1.50
2019-05-14T04:48:41.555Z,3.27
2019-05-14T04:51:05.359Z,6.42
2019-05-14T04:53:34.715Z,2.47
2019-05-14T04:56:04.022Z,4.35
2019-05-14T04:58:33.793Z,2.30
2019-05-14T05:01:03.599Z,1.25
2019-05-14T05:03:33.485Z,2.27
2019-05-14T05:06:03.292Z,1.90
2019-05-14T05:08:32.666Z,3.58
2019-05-14T05:11:02.358Z,5.08
2019-05-14T05:13:32.181Z,7.92
2019-05-14T05:16:02.028Z,3.60
2019-05-14T05:18:31.865Z,6.42
2019-05-14T05:21:01.696Z,2.15
2019-05-14T05:23:31.536Z,4.87
2019-05-14T05:26:00.965Z,1.83
2019-05-14T05:28:30.192Z,4.60
2019-05-14T05:30:59.877Z,3.47
2019-05-14T05:33:29.546Z,2.90
2019-05-14T05:35:59.455Z,2.23
2019-05-14T05:38:29.430Z,1.17
2019-05-14T05:41:00.313Z,1.90
2019-05-14T05:43:30.178Z,1.70
2019-05-14T05:45:59.972Z,1.83
2019-05-14T05:48:29.318Z,1.83
2019-05-14T05:50:59.377Z,1.50
2019-05-14T05:53:29.225Z,1.37
2019-05-14T05:55:59.531Z,1.33
2019-05-14T05:58:30.119Z,1.53
2019-05-14T06:00:59.594Z,1.43
2019-05-14T06:03:30.315Z,1.60
2019-05-14T06:06:00.057Z,1.30
2019-05-14T06:08:29.753Z,1.40
2019-05-14T06:10:59.593Z,1.37
2019-05-14T06:13:29.412Z,1.30
2019-05-14T06:15:59.546Z,1.40
2019-05-14T06:18:29.396Z,1.93
2019-05-14T06:20:59.177Z,1.60
2019-05-14T06:23:29.061Z,1.60
2019-05-14T06:25:59.791Z,2.10
2019-05-14T06:28:33.406Z,1.57
2019-05-14T06:31:01.583Z,1.87
2019-05-14T06:33:31.386Z,1.67
2019-05-14T06:36:00.798Z,1.73
2019-05-14T06:38:30.477Z,1.67
2019-05-14T06:41:00.433Z,1.63
2019-05-14T06:43:30.113Z,1.40
2019-05-14T06:45:59.465Z,1.80
2019-05-14T06:48:34.343Z,1.73
2019-05-14T06:51:00.304Z,1.43
2019-05-14T06:53:30.120Z,1.50
2019-05-14T06:56:00.082Z,1.70
2019-05-14T06:58:30.072Z,1.97
2019-05-14T07:00:59.427Z,1.63
2019-05-14T07:03:28.652Z,1.73
2019-05-14T07:05:59.594Z,1.40
2019-05-14T07:08:29.002Z,1.30
2019-05-14T07:10:59.305Z,1.53
2019-05-14T07:13:29.315Z,1.67
2019-05-14T07:15:59.313Z,1.70
2019-05-14T07:18:45.160Z,1.67
2019-05-14T07:21:00.699Z,1.53
2019-05-14T07:23:30.568Z,1.70
2019-05-14T07:26:00.442Z,1.80
2019-05-14T07:28:30.237Z,1.40
2019-05-14T07:30:59.614Z,1.90
2019-05-14T07:33:29.614Z,1.93
2019-05-14T07:35:59.620Z,1.63
2019-05-14T07:38:29.426Z,1.60
2019-05-14T07:40:59.252Z,1.70
2019-05-14T07:43:29.137Z,2.00
2019-05-14T07:45:58.484Z,1.70
2019-05-14T07:48:28.727Z,1.93
2019-05-14T07:50:59.976Z,1.53
2019-05-14T07:53:38.686Z,1.80
2019-05-14T07:56:00.131Z,2.00
2019-05-14T07:58:29.792Z,1.60
2019-05-14T08:00:59.842Z,1.50
2019-05-14T08:03:29.719Z,1.50
2019-05-14T08:05:59.267Z,2.03
2019-05-14T08:08:29.404Z,1.63
2019-05-14T08:10:59.285Z,2.20
2019-05-14T08:13:29.462Z,1.33
2019-05-14T08:16:02.061Z,1.83
2019-05-14T08:18:31.421Z,1.70
2019-05-14T08:21:00.678Z,1.60
2019-05-14T08:23:30.362Z,1.80
2019-05-14T08:26:03.682Z,1.80
2019-05-14T08:28:31.689Z,1.63
2019-05-14T08:31:01.443Z,1.40
2019-05-14T08:33:30.845Z,1.90
2019-05-14T08:36:00.534Z,1.67
2019-05-14T08:38:29.909Z,1.40
2019-05-14T08:40:59.739Z,1.63
2019-05-14T08:43:29.452Z,1.20
2019-05-14T08:45:59.133Z,1.60
2019-05-14T08:48:29.787Z,1.40
2019-05-14T08:50:59.248Z,1.50
2019-05-14T08:53:29.021Z,1.73
2019-05-14T08:55:58.867Z,1.50
2019-05-14T08:58:29.994Z,1.90
2019-05-14T09:00:59.324Z,1.50
2019-05-14T09:03:28.912Z,1.50
2019-05-14T09:06:00.743Z,1.80
2019-05-14T09:08:29.188Z,1.23
2019-05-14T09:10:59.039Z,1.60
2019-05-14T09:13:29.062Z,2.07
2019-05-14T09:15:58.950Z,1.80
2019-05-14T09:18:29.244Z,1.70
2019-05-14T09:20:58.859Z,1.30
2019-05-14T09:23:28.744Z,1.37
2019-05-14T09:25:58.972Z,1.50
2019-05-14T09:28:28.865Z,1.43
2019-05-14T09:30:59.617Z,1.40
2019-05-14T09:33:29.775Z,1.40
2019-05-14T09:36:11.038Z,1.40
2019-05-14T09:38:30.209Z,1.00
2019-05-14T09:41:11.350Z,1.60
2019-05-14T09:43:30.636Z,1.87
2019-05-14T09:45:59.903Z,1.30
2019-05-14T09:48:29.661Z,1.33
2019-05-14T09:50:59.550Z,1.70
2019-05-14T09:53:29.461Z,1.33
2019-05-14T09:55:59.473Z,1.33
2019-05-14T09:58:29.280Z,1.47
2019-05-14T10:00:59.183Z,1.47
2019-05-14T10:03:28.584Z,1.10
2019-05-14T10:05:59.118Z,1.27
2019-05-14T10:08:29.273Z,1.57
2019-05-14T10:11:00.251Z,1.33
2019-05-14T10:13:30.452Z,1.20
2019-05-14T10:16:00.273Z,1.10
2019-05-14T10:18:30.143Z,1.07
2019-05-14T10:21:00.021Z,1.60
2019-05-14T10:23:29.859Z,1.10
2019-05-14T10:25:59.997Z,1.00
2019-05-14T10:28:29.901Z,1.30
2019-05-14T10:31:03.334Z,0.83
2019-05-14T10:33:31.316Z,0.70
2019-05-14T10:36:01.395Z,1.47
2019-05-14T10:38:31.215Z,1.10
2019-05-14T10:41:01.214Z,1.30
2019-05-14T10:43:31.012Z,1.23
2019-05-14T10:46:00.978Z,1.00
2019-05-14T10:48:30.794Z,1.10
2019-05-14T10:51:03.511Z,0.97
2019-05-14T10:53:32.530Z,1.33
2019-05-14T10:56:04.956Z,1.20
2019-05-14T10:58:34.864Z,0.87
2019-05-14T11:01:04.836Z,1.10
2019-05-14T11:03:35.015Z,1.20
2019-05-14T11:06:05.065Z,1.03
2019-05-14T11:08:35.183Z,0.97
2019-05-14T11:11:05.097Z,1.00
2019-05-14T11:13:35.226Z,1.00
2019-05-14T11:16:08.396Z,1.10
2019-05-14T11:18:39.872Z,0.97
2019-05-14T11:21:21.516Z,1.07
2019-05-14T11:23:40.653Z,0.90
2019-05-14T11:26:10.729Z,1.00
2019-05-14T11:28:40.733Z,1.03
2019-05-14T11:31:10.088Z,1.13
2019-05-14T11:33:39.860Z,0.80
2019-05-14T11:36:10.029Z,0.83
2019-05-14T11:38:40.254Z,1.30
2019-05-14T11:41:10.137Z,0.83
2019-05-14T11:43:40.286Z,1.10
2019-05-14T11:46:10.170Z,0.57
2019-05-14T11:48:39.989Z,1.10
2019-05-14T11:51:09.880Z,0.97
2019-05-14T11:53:39.687Z,0.90
2019-05-14T11:56:09.497Z,1.00
2019-05-14T11:58:39.438Z,1.00
2019-05-14T12:01:09.470Z,1.13
2019-05-14T12:03:39.545Z,0.90
2019-05-14T12:06:09.948Z,1.20
2019-05-14T12:08:41.945Z,1.17
2019-05-14T12:11:12.102Z,1.10
2019-05-14T12:13:42.245Z,0.77
2019-05-14T12:16:12.210Z,0.83
2019-05-14T12:18:42.269Z,1.00
2019-05-14T12:21:12.089Z,0.97
2019-05-14T12:23:41.914Z,0.90
2019-05-14T12:26:11.252Z,1.07
2019-05-14T12:28:41.177Z,0.80
2019-05-14T12:31:10.974Z,1.00
2019-05-14T12:33:40.987Z,1.07
2019-05-14T12:36:10.642Z,1.27
2019-05-14T12:38:40.399Z,0.90
2019-05-14T12:41:09.818Z,1.10
2019-05-14T12:43:39.821Z,0.87
2019-05-14T12:46:10.748Z,1.00
2019-05-14T12:48:40.620Z,1.40
2019-05-14T12:51:10.509Z,1.03
2019-05-14T12:53:39.874Z,1.27
2019-05-14T12:56:09.562Z,0.77
2019-05-14T12:58:45.332Z,0.60
2019-05-14T13:01:10.996Z,1.00
2019-05-14T13:03:40.357Z,1.03
2019-05-14T13:06:10.397Z,1.10
2019-05-14T13:08:40.341Z,0.97
2019-05-14T13:11:10.324Z,0.83
2019-05-14T13:13:42.773Z,0.90
2019-05-14T13:16:11.682Z,0.87
2019-05-14T13:18:41.575Z,1.03
2019-05-14T13:21:11.480Z,0.90
2019-05-14T13:23:41.368Z,0.90
2019-05-14T13:26:11.252Z,0.80
2019-05-14T13:28:41.167Z,1.00
2019-05-14T13:31:12.797Z,0.80
2019-05-14T13:33:48.568Z,0.87
2019-05-14T13:36:25.329Z,0.87
2019-05-14T13:38:55.105Z,0.87
2019-05-14T13:41:24.909Z,0.77
2019-05-14T13:43:54.867Z,0.70
2019-05-14T13:46:24.712Z,0.77
2019-05-14T13:48:54.500Z,0.60
2019-05-14T13:51:24.389Z,0.70
2019-05-14T13:53:54.338Z,0.87
2019-05-14T13:56:24.164Z,0.70
2019-05-14T13:58:53.972Z,0.97
2019-05-14T14:01:23.822Z,0.90
2019-05-14T14:04:06.292Z,0.73
2019-05-14T14:06:24.681Z,0.97
2019-05-14T14:08:54.710Z,0.90
2019-05-14T14:11:24.522Z,0.70
2019-05-14T14:13:53.852Z,1.10
2019-05-14T14:16:23.076Z,1.00
2019-05-14T14:18:52.303Z,0.87
2019-05-14T14:21:22.086Z,1.03
2019-05-14T14:23:52.109Z,0.80
2019-05-14T14:26:21.992Z,1.10
2019-05-14T14:28:52.365Z,1.03
2019-05-14T14:31:22.258Z,1.03
2019-05-14T14:33:52.130Z,1.10
2019-05-14T14:36:22.344Z,1.10
2019-05-14T14:38:52.304Z,0.70
2019-05-14T14:41:22.097Z,0.83
2019-05-14T14:43:54.387Z,0.80
2019-05-14T14:46:22.524Z,0.70
2019-05-14T14:48:52.194Z,1.10
2019-05-14T14:51:22.248Z,0.90
2019-05-14T14:54:00.905Z,0.90
2019-05-14T14:56:23.578Z,0.97
2019-05-14T14:58:53.375Z,1.00
2019-05-14T15:01:23.269Z,0.80
2019-05-14T15:03:53.163Z,1.07
2019-05-14T15:06:23.067Z,0.83
2019-05-14T15:08:53.197Z,0.90
2019-05-14T15:11:22.994Z,0.63
2019-05-14T15:13:52.828Z,0.60
2019-05-14T15:16:22.710Z,1.07
2019-05-14T15:18:52.533Z,0.80
2019-05-14T15:21:22.330Z,1.23
2019-05-14T15:24:05.944Z,0.90
2019-05-14T15:26:23.660Z,0.70
2019-05-14T15:28:53.003Z,0.60
2019-05-14T15:31:22.753Z,0.90
2019-05-14T15:33:52.580Z,0.70
2019-05-14T15:36:22.778Z,0.87
2019-05-14T15:38:52.593Z,0.73
2019-05-14T15:41:22.407Z,0.83
2019-05-14T15:43:52.314Z,0.90
2019-05-14T15:46:22.101Z,0.80
2019-05-14T15:48:52.177Z,1.00
2019-05-14T15:51:21.981Z,0.60
2019-05-14T15:54:07.234Z,0.90
2019-05-14T15:56:23.383Z,1.00
2019-05-14T15:58:53.196Z,1.10
2019-05-14T16:01:23.221Z,0.80
2019-05-14T16:03:53.103Z,0.80
2019-05-14T16:06:22.992Z,0.90
2019-05-14T16:08:52.877Z,1.13
2019-05-14T16:11:22.756Z,0.80
2019-05-14T16:13:52.574Z,0.90
2019-05-14T16:16:22.405Z,1.20
2019-05-14T16:18:52.448Z,1.00
2019-05-14T16:21:22.329Z,1.40
2019-05-14T16:23:52.159Z,0.90
2019-05-14T16:26:22.008Z,0.70
2019-05-14T16:28:51.835Z,0.80
2019-05-14T16:31:21.650Z,0.70
2019-05-14T16:33:51.538Z,1.60
2019-05-14T16:36:21.368Z,0.83
2019-05-14T16:38:51.205Z,0.90
2019-05-14T16:41:21.130Z,0.80
2019-05-14T16:43:50.945Z,0.80
2019-05-14T16:46:20.864Z,0.90
2019-05-14T16:48:50.706Z,0.67
2019-05-14T16:51:20.610Z,0.90
2019-05-14T16:53:50.440Z,0.80
2019-05-14T16:56:20.509Z,0.73
2019-05-14T16:58:50.333Z,0.73
2019-05-14T17:01:20.355Z,1.00
2019-05-14T17:03:50.261Z,0.87
2019-05-14T17:06:20.410Z,0.70
2019-05-14T17:08:50.218Z,0.90
2019-05-14T17:11:20.034Z,0.90
2019-05-14T17:13:50.000Z,0.77
2019-05-14T17:16:19.880Z,0.90
2019-05-14T17:18:49.778Z,1.43
2019-05-14T17:21:19.620Z,0.90
2019-05-14T17:23:49.442Z,1.00
2019-05-14T17:26:19.291Z,0.90
2019-05-14T17:28:49.129Z,1.00
2019-05-14T17:31:19.358Z,0.80
2019-05-14T17:33:49.258Z,0.70
2019-05-14T17:36:19.350Z,0.60
2019-05-14T17:38:49.496Z,0.80
2019-05-14T17:41:19.800Z,0.77
2019-05-14T17:43:49.785Z,1.37
2019-05-14T17:46:19.677Z,0.97
2019-05-14T17:48:49.488Z,1.60
2019-05-14T17:51:19.343Z,1.00
2019-05-14T17:53:49.142Z,0.70
2019-05-14T17:56:20.167Z,0.90
2019-05-14T17:58:50.847Z,0.93
2019-05-14T18:01:20.898Z,0.63
2019-05-14T18:03:50.785Z,1.00
2019-05-14T18:06:20.757Z,0.80
2019-05-14T18:08:50.645Z,0.83
2019-05-14T18:11:20.519Z,0.70
2019-05-14T18:13:50.342Z,1.17
2019-05-14T18:16:20.142Z,1.20
2019-05-14T18:18:49.941Z,1.00
2019-05-14T18:21:19.853Z,4.47
2019-05-14T18:23:49.553Z,2.00
2019-05-14T18:26:19.309Z,1.67
2019-05-14T18:28:49.137Z,1.60
2019-05-14T18:31:20.532Z,1.10
2019-05-14T18:33:50.818Z,1.10
2019-05-14T18:36:21.121Z,2.00
2019-05-14T18:38:50.545Z,1.40
2019-05-14T18:41:19.759Z,1.20
2019-05-14T18:43:49.584Z,0.93
2019-05-14T18:46:19.717Z,1.90
2019-05-14T18:48:49.567Z,1.43
2019-05-14T18:51:19.869Z,3.07
2019-05-14T18:53:49.764Z,1.43
2019-05-14T18:56:23.881Z,1.23
2019-05-14T18:58:51.154Z,1.27
2019-05-14T19:01:21.037Z,1.50
2019-05-14T19:03:50.869Z,1.23
2019-05-14T19:06:20.745Z,1.10
2019-05-14T19:08:50.568Z,1.10
2019-05-14T19:11:20.436Z,1.20
2019-05-14T19:13:50.316Z,1.40
2019-05-14T19:16:20.193Z,1.10
2019-05-14T19:18:50.123Z,1.30
2019-05-14T19:21:19.905Z,1.70
2019-05-14T19:23:49.713Z,1.53
2019-05-14T19:26:32.918Z,1.27
2019-05-14T19:28:50.531Z,1.00
2019-05-14T19:31:20.428Z,1.80
2019-05-14T19:33:50.505Z,1.60
2019-05-14T19:36:19.865Z,1.80
2019-05-14T19:38:49.774Z,1.70
2019-05-14T19:41:22.854Z,1.63
2019-05-14T19:43:51.068Z,2.10
2019-05-14T19:46:20.881Z,2.10
2019-05-14T19:48:50.341Z,1.70
2019-05-14T19:51:19.561Z,1.60
2019-05-14T19:53:52.294Z,1.20
2019-05-14T19:56:23.108Z,1.50
2019-05-14T19:58:53.014Z,1.40
2019-05-14T20:01:22.964Z,1.50
2019-05-14T20:03:52.863Z,1.50
2019-05-14T20:06:22.386Z,1.17
2019-05-14T20:08:52.127Z,0.87
2019-05-14T20:11:21.992Z,1.20
2019-05-14T20:13:51.811Z,1.40
2019-05-14T20:16:21.699Z,1.40
2019-05-14T20:18:51.052Z,2.40
2019-05-14T20:21:20.752Z,1.80
2019-05-14T20:24:09.102Z,2.50
2019-05-14T20:27:07.708Z,3.70
2019-05-14T20:29:48.656Z,2.57
2019-05-14T20:32:37.429Z,1.70
2019-05-14T20:35:31.648Z,6.07
2019-05-14T20:38:15.457Z,5.00
2019-05-14T20:41:03.894Z,3.40
2019-05-14T20:43:52.009Z,2.53
2019-05-14T20:46:40.734Z,7.90
2019-05-14T20:49:28.957Z,4.73
2019-05-14T20:52:20.385Z,5.70
2019-05-14T20:55:09.654Z,2.57
2019-05-14T20:57:58.747Z,4.93
2019-05-14T21:00:48.493Z,3.73
2019-05-14T21:03:37.026Z,2.83
2019-05-14T21:06:24.925Z,2.20
2019-05-14T21:09:13.396Z,3.00
2019-05-14T21:12:01.949Z,3.07
2019-05-14T21:14:50.389Z,3.30
2019-05-14T21:17:38.585Z,4.37
2019-05-14T21:20:28.216Z,2.77
2019-05-14T21:23:18.301Z,4.17
2019-05-14T21:26:08.598Z,6.57
2019-05-14T21:28:58.290Z,3.83
2019-05-14T21:31:46.360Z,1.20
2019-05-14T21:34:34.776Z,1.50
2019-05-14T21:37:23.336Z,1.57
2019-05-14T21:40:11.838Z,2.00
2019-05-14T21:43:00.504Z,1.23
2019-05-14T21:45:49.004Z,1.60
2019-05-14T21:48:38.713Z,1.90
2019-05-14T21:51:28.336Z,1.47
2019-05-14T21:54:18.873Z,1.23
2019-05-14T21:57:11.327Z,1.90
2019-05-14T21:59:56.057Z,1.30
2019-05-14T22:02:44.465Z,1.60
2019-05-14T22:05:32.960Z,1.43
2019-05-14T22:08:21.668Z,1.37
2019-05-14T22:11:09.845Z,1.10
2019-05-14T22:13:58.973Z,1.80
2019-05-14T22:16:48.698Z,1.70
2019-05-14T22:19:38.451Z,1.30
2019-05-14T22:22:27.758Z,1.43
2019-05-14T22:25:18.765Z,1.37
2019-05-14T22:28:12.356Z,1.77
2019-05-14T22:30:58.540Z,1.33
2019-05-14T22:33:46.217Z,1.70
2019-05-14T22:36:34.908Z,1.87
2019-05-14T22:39:23.646Z,1.63
2019-05-14T22:42:12.171Z,1.70
2019-05-14T22:45:00.272Z,1.50
2019-05-14T22:47:49.003Z,1.80
2019-05-14T22:50:38.716Z,1.93
2019-05-14T22:53:27.841Z,1.40
2019-05-14T22:56:16.509Z,1.60
2019-05-14T22:59:04.680Z,1.40
2019-05-14T23:01:53.389Z,1.17
2019-05-14T23:04:42.053Z,1.50
2019-05-14T23:07:29.681Z,1.23
2019-05-14T23:10:18.382Z,1.20
2019-05-14T23:13:06.652Z,1.30
2019-05-14T23:15:54.439Z,1.20
2019-05-14T23:18:41.985Z,1.07
2019-05-14T23:21:30.140Z,1.20
2019-05-14T23:24:18.964Z,0.87
2019-05-14T23:27:08.281Z,1.10
2019-05-14T23:29:58.566Z,0.73
2019-05-14T23:32:48.832Z,1.10
2019-05-14T23:35:38.784Z,1.10
2019-05-14T23:38:29.044Z,1.17
2019-05-14T23:41:16.337Z,1.13
2019-05-14T23:44:04.608Z,1.33
2019-05-14T23:46:52.377Z,1.20
2019-05-14T23:49:40.260Z,0.90
2019-05-14T23:52:29.234Z,1.10
2019-05-14T23:55:18.232Z,1.20
2019-05-14T23:58:08.319Z,1.00
